sensor_id;sensor_type;location;lat;lon;timestamp;P1;durP1;ratioP1;P2;durP2;ratioP2
55692;SDS011;41590;53.366;5.212;2022-12-18T00:01:32;87.35;;;34.03;;
55692;SDS011;41590;53.366;5.212;2022-12-18T00:04:04;78.10;;;31.63;;
55692;SDS011;41590;53.366;5.212;2022-12-18T00:09:05;89.28;;;35.17;;
55692;SDS011;41590;53.366;5.212;2022-12-18T00:11:31;84.60;;;36.83;;
55692;SDS011;41590;53.366;5.212;2022-12-18T00:14:02;81.38;;;33.22;;
55692;SDS011;41590;53.366;5.212;2022-12-18T00:16:28;90.50;;;34.95;;
55692;SDS011;41590;53.366;5.212;2022-12-18T00:18:57;80.88;;;33.17;;
55692;SDS011;41590;53.366;5.212;2022-12-18T00:21:25;78.43;;;32.13;;
55692;SDS011;41590;53.366;5.212;2022-12-18T00:23:58;83.55;;;34.42;;
55692;SDS011;41590;53.366;5.212;2022-12-18T00:26:32;85.80;;;35.47;;
55692;SDS011;41590;53.366;5.212;2022-12-18T00:29:03;84.10;;;31.90;;
55692;SDS011;41590;53.366;5.212;2022-12-18T00:31:31;67.22;;;27.25;;
55692;SDS011;41590;53.366;5.212;2022-12-18T00:33:57;86.05;;;32.90;;
55692;SDS011;41590;53.366;5.212;2022-12-18T00:36:26;83.10;;;34.13;;
55692;SDS011;41590;53.366;5.212;2022-12-18T00:39:02;80.00;;;32.95;;
55692;SDS011;41590;53.366;5.212;2022-12-18T00:41:30;79.20;;;34.55;;
55692;SDS011;41590;53.366;5.212;2022-12-18T00:44:15;80.50;;;34.08;;
55692;SDS011;41590;53.366;5.212;2022-12-18T00:46:45;76.03;;;33.60;;
55692;SDS011;41590;53.366;5.212;2022-12-18T00:49:13;76.28;;;30.10;;
55692;SDS011;41590;53.366;5.212;2022-12-18T00:51:41;78.00;;;32.78;;
55692;SDS011;41590;53.366;5.212;2022-12-18T00:54:06;80.18;;;29.85;;
55692;SDS011;41590;53.366;5.212;2022-12-18T00:56:34;83.05;;;33.65;;
55692;SDS011;41590;53.366;5.212;2022-12-18T00:59:03;91.32;;;35.22;;
55692;SDS011;41590;53.366;5.212;2022-12-18T01:01:35;93.30;;;36.70;;
55692;SDS011;41590;53.366;5.212;2022-12-18T01:04:13;83.23;;;34.43;;
55692;SDS011;41590;53.366;5.212;2022-12-18T01:06:47;84.88;;;36.30;;
55692;SDS011;41590;53.366;5.212;2022-12-18T01:09:14;91.55;;;35.97;;
55692;SDS011;41590;53.366;5.212;2022-12-18T01:11:50;83.75;;;34.45;;
55692;SDS011;41590;53.366;5.212;2022-12-18T01:14:16;90.68;;;34.05;;
55692;SDS011;41590;53.366;5.212;2022-12-18T01:16:44;95.95;;;37.45;;
55692;SDS011;41590;53.366;5.212;2022-12-18T01:21:44;89.40;;;33.35;;
55692;SDS011;41590;53.366;5.212;2022-12-18T01:24:12;88.57;;;34.97;;
55692;SDS011;41590;53.366;5.212;2022-12-18T01:26:48;92.80;;;36.85;;
55692;SDS011;41590;53.366;5.212;2022-12-18T01:29:15;100.90;;;38.97;;
55692;SDS011;41590;53.366;5.212;2022-12-18T01:31:42;94.60;;;35.95;;
55692;SDS011;41590;53.366;5.212;2022-12-18T01:36:38;93.18;;;36.88;;
55692;SDS011;41590;53.366;5.212;2022-12-18T01:39:13;95.25;;;35.10;;
55692;SDS011;41590;53.366;5.212;2022-12-18T01:41:41;94.90;;;36.75;;
55692;SDS011;41590;53.366;5.212;2022-12-18T01:47:18;103.18;;;37.75;;
55692;SDS011;41590;53.366;5.212;2022-12-18T01:52:41;98.80;;;35.85;;
55692;SDS011;41590;53.366;5.212;2022-12-18T01:55:13;97.63;;;36.22;;
55692;SDS011;41590;53.366;5.212;2022-12-18T01:57:42;89.35;;;34.45;;
55692;SDS011;41590;53.366;5.212;2022-12-18T02:00:19;92.97;;;37.30;;
55692;SDS011;41590;53.366;5.212;2022-12-18T02:14:01;101.57;;;36.50;;
55692;SDS011;41590;53.366;5.212;2022-12-18T02:27:56;101.88;;;37.28;;
55692;SDS011;41590;53.366;5.212;2022-12-18T02:30:29;101.53;;;36.85;;
55692;SDS011;41590;53.366;5.212;2022-12-18T02:32:58;113.05;;;39.08;;
55692;SDS011;41590;53.366;5.212;2022-12-18T02:35:27;102.60;;;35.13;;
55692;SDS011;41590;53.366;5.212;2022-12-18T02:37:56;102.30;;;33.58;;
55692;SDS011;41590;53.366;5.212;2022-12-18T02:40:26;107.18;;;38.95;;
55692;SDS011;41590;53.366;5.212;2022-12-18T02:43:14;106.80;;;38.00;;
55692;SDS011;41590;53.366;5.212;2022-12-18T02:45:49;80.93;;;29.00;;
55692;SDS011;41590;53.366;5.212;2022-12-18T02:48:19;96.47;;;34.38;;
55692;SDS011;41590;53.366;5.212;2022-12-18T02:51:03;95.47;;;36.58;;
55692;SDS011;41590;53.366;5.212;2022-12-18T02:56:44;91.15;;;33.17;;
55692;SDS011;41590;53.366;5.212;2022-12-18T02:59:21;64.72;;;23.00;;
55692;SDS011;41590;53.366;5.212;2022-12-18T03:01:58;96.43;;;34.22;;
55692;SDS011;41590;53.366;5.212;2022-12-18T03:04:50;76.55;;;31.25;;
55692;SDS011;41590;53.366;5.212;2022-12-18T03:07:40;97.50;;;35.20;;
55692;SDS011;41590;53.366;5.212;2022-12-18T03:10:21;92.90;;;34.78;;
55692;SDS011;41590;53.366;5.212;2022-12-18T03:15:48;82.18;;;32.17;;
55692;SDS011;41590;53.366;5.212;2022-12-18T03:21:57;88.53;;;34.03;;
55692;SDS011;41590;53.366;5.212;2022-12-18T03:24:22;89.43;;;32.70;;
55692;SDS011;41590;53.366;5.212;2022-12-18T03:27:00;88.22;;;34.63;;
55692;SDS011;41590;53.366;5.212;2022-12-18T03:35:34;99.38;;;32.13;;
55692;SDS011;41590;53.366;5.212;2022-12-18T03:38:11;75.53;;;31.13;;
55692;SDS011;41590;53.366;5.212;2022-12-18T03:46:19;78.63;;;27.52;;
55692;SDS011;41590;53.366;5.212;2022-12-18T03:48:59;80.88;;;31.60;;
55692;SDS011;41590;53.366;5.212;2022-12-18T03:54:32;81.70;;;31.63;;
55692;SDS011;41590;53.366;5.212;2022-12-18T03:57:10;75.93;;;26.52;;
55692;SDS011;41590;53.366;5.212;2022-12-18T03:59:40;78.10;;;29.40;;
55692;SDS011;41590;53.366;5.212;2022-12-18T04:02:08;85.15;;;32.80;;
55692;SDS011;41590;53.366;5.212;2022-12-18T04:04:35;79.13;;;31.15;;
55692;SDS011;41590;53.366;5.212;2022-12-18T04:07:04;81.47;;;30.25;;
55692;SDS011;41590;53.366;5.212;2022-12-18T04:09:31;78.97;;;32.00;;
55692;SDS011;41590;53.366;5.212;2022-12-18T04:12:10;78.93;;;31.65;;
55692;SDS011;41590;53.366;5.212;2022-12-18T04:17:30;74.47;;;28.83;;
55692;SDS011;41590;53.366;5.212;2022-12-18T04:20:03;66.60;;;26.85;;
55692;SDS011;41590;53.366;5.212;2022-12-18T04:22:30;72.75;;;29.33;;
55692;SDS011;41590;53.366;5.212;2022-12-18T04:25:14;73.47;;;29.38;;
55692;SDS011;41590;53.366;5.212;2022-12-18T04:27:40;66.10;;;26.10;;
55692;SDS011;41590;53.366;5.212;2022-12-18T04:30:07;70.25;;;28.33;;
55692;SDS011;41590;53.366;5.212;2022-12-18T04:32:34;60.35;;;26.33;;
55692;SDS011;41590;53.366;5.212;2022-12-18T04:35:00;64.43;;;26.35;;
55692;SDS011;41590;53.366;5.212;2022-12-18T04:42:56;65.95;;;28.38;;
55692;SDS011;41590;53.366;5.212;2022-12-18T04:45:25;66.90;;;29.27;;
55692;SDS011;41590;53.366;5.212;2022-12-18T04:47:54;65.45;;;27.25;;
55692;SDS011;41590;53.366;5.212;2022-12-18T04:50:30;60.50;;;25.27;;
55692;SDS011;41590;53.366;5.212;2022-12-18T04:55:27;61.90;;;27.27;;
55692;SDS011;41590;53.366;5.212;2022-12-18T05:00:25;55.35;;;25.13;;
55692;SDS011;41590;53.366;5.212;2022-12-18T05:02:52;64.68;;;27.58;;
55692;SDS011;41590;53.366;5.212;2022-12-18T05:05:19;65.53;;;28.05;;
55692;SDS011;41590;53.366;5.212;2022-12-18T05:12:45;67.32;;;28.88;;
55692;SDS011;41590;53.366;5.212;2022-12-18T05:15:28;71.07;;;29.55;;
55692;SDS011;41590;53.366;5.212;2022-12-18T05:17:56;71.25;;;28.80;;
55692;SDS011;41590;53.366;5.212;2022-12-18T05:20:25;71.75;;;30.27;;
55692;SDS011;41590;53.366;5.212;2022-12-18T05:25:22;68.10;;;30.35;;
55692;SDS011;41590;53.366;5.212;2022-12-18T05:27:50;78.97;;;33.53;;
55692;SDS011;41590;53.366;5.212;2022-12-18T05:30:22;73.90;;;31.60;;
55692;SDS011;41590;53.366;5.212;2022-12-18T05:32:48;60.65;;;26.23;;
55692;SDS011;41590;53.366;5.212;2022-12-18T05:35:14;64.60;;;27.83;;
55692;SDS011;41590;53.366;5.212;2022-12-18T05:40:12;69.45;;;30.75;;
55692;SDS011;41590;53.366;5.212;2022-12-18T05:42:38;64.53;;;29.45;;
55692;SDS011;41590;53.366;5.212;2022-12-18T05:45:05;71.22;;;30.08;;
55692;SDS011;41590;53.366;5.212;2022-12-18T05:47:33;68.78;;;29.45;;
55692;SDS011;41590;53.366;5.212;2022-12-18T05:50:06;67.45;;;29.98;;
55692;SDS011;41590;53.366;5.212;2022-12-18T05:52:43;72.03;;;29.75;;
55692;SDS011;41590;53.366;5.212;2022-12-18T05:55:10;62.17;;;28.88;;
55692;SDS011;41590;53.366;5.212;2022-12-18T05:57:44;64.65;;;28.15;;
55692;SDS011;41590;53.366;5.212;2022-12-18T06:00:10;59.03;;;27.85;;
55692;SDS011;41590;53.366;5.212;2022-12-18T06:02:46;50.63;;;23.08;;
55692;SDS011;41590;53.366;5.212;2022-12-18T06:05:14;56.90;;;25.55;;
55692;SDS011;41590;53.366;5.212;2022-12-18T06:07:41;68.90;;;27.42;;
55692;SDS011;41590;53.366;5.212;2022-12-18T06:10:07;63.53;;;27.67;;
55692;SDS011;41590;53.366;5.212;2022-12-18T06:12:41;58.20;;;25.95;;
55692;SDS011;41590;53.366;5.212;2022-12-18T06:15:16;57.70;;;24.75;;
55692;SDS011;41590;53.366;5.212;2022-12-18T06:17:44;63.38;;;26.60;;
55692;SDS011;41590;53.366;5.212;2022-12-18T06:20:10;57.70;;;23.40;;
55692;SDS011;41590;53.366;5.212;2022-12-18T06:22:39;68.63;;;28.83;;
55692;SDS011;41590;53.366;5.212;2022-12-18T06:25:05;63.60;;;27.85;;
55692;SDS011;41590;53.366;5.212;2022-12-18T06:27:33;65.10;;;26.85;;
55692;SDS011;41590;53.366;5.212;2022-12-18T06:32:29;77.22;;;32.00;;
55692;SDS011;41590;53.366;5.212;2022-12-18T06:34:55;73.28;;;31.25;;
55692;SDS011;41590;53.366;5.212;2022-12-18T06:39:53;70.65;;;29.02;;
55692;SDS011;41590;53.366;5.212;2022-12-18T06:42:19;76.97;;;30.80;;
55692;SDS011;41590;53.366;5.212;2022-12-18T06:45:03;80.70;;;32.10;;
55692;SDS011;41590;53.366;5.212;2022-12-18T06:47:31;73.72;;;31.73;;
55692;SDS011;41590;53.366;5.212;2022-12-18T06:50:01;79.60;;;32.45;;
55692;SDS011;41590;53.366;5.212;2022-12-18T06:55:34;118.60;;;42.90;;
55692;SDS011;41590;53.366;5.212;2022-12-18T06:57:59;113.93;;;41.77;;
55692;SDS011;41590;53.366;5.212;2022-12-18T07:00:27;121.57;;;44.63;;
55692;SDS011;41590;53.366;5.212;2022-12-18T07:02:55;112.47;;;39.17;;
55692;SDS011;41590;53.366;5.212;2022-12-18T07:05:24;122.13;;;42.42;;
55692;SDS011;41590;53.366;5.212;2022-12-18T07:07:53;131.60;;;45.55;;
55692;SDS011;41590;53.366;5.212;2022-12-18T07:10:23;119.00;;;41.67;;
55692;SDS011;41590;53.366;5.212;2022-12-18T07:12:49;110.18;;;41.40;;
55692;SDS011;41590;53.366;5.212;2022-12-18T07:15:15;105.07;;;40.60;;
55692;SDS011;41590;53.366;5.212;2022-12-18T07:17:41;112.90;;;42.65;;
55692;SDS011;41590;53.366;5.212;2022-12-18T07:20:07;106.72;;;40.40;;
55692;SDS011;41590;53.366;5.212;2022-12-18T07:22:35;126.95;;;46.50;;
55692;SDS011;41590;53.366;5.212;2022-12-18T07:25:01;120.13;;;44.67;;
55692;SDS011;41590;53.366;5.212;2022-12-18T07:27:28;118.63;;;43.65;;
55692;SDS011;41590;53.366;5.212;2022-12-18T07:32:30;115.55;;;41.75;;
55692;SDS011;41590;53.366;5.212;2022-12-18T07:34:57;100.85;;;39.95;;
55692;SDS011;41590;53.366;5.212;2022-12-18T07:37:24;107.03;;;41.65;;
55692;SDS011;41590;53.366;5.212;2022-12-18T07:39:52;96.03;;;38.17;;
55692;SDS011;41590;53.366;5.212;2022-12-18T07:42:21;93.95;;;36.40;;
55692;SDS011;41590;53.366;5.212;2022-12-18T07:45:02;98.80;;;39.25;;
55692;SDS011;41590;53.366;5.212;2022-12-18T07:47:35;93.47;;;40.10;;
55692;SDS011;41590;53.366;5.212;2022-12-18T07:52:33;98.30;;;40.45;;
55692;SDS011;41590;53.366;5.212;2022-12-18T07:57:50;95.85;;;37.83;;
55692;SDS011;41590;53.366;5.212;2022-12-18T08:00:17;93.65;;;37.00;;
55692;SDS011;41590;53.366;5.212;2022-12-18T08:02:45;84.97;;;36.28;;
55692;SDS011;41590;53.366;5.212;2022-12-18T08:05:12;92.22;;;36.55;;
55692;SDS011;41590;53.366;5.212;2022-12-18T08:07:39;88.82;;;36.75;;
55692;SDS011;41590;53.366;5.212;2022-12-18T08:10:06;88.70;;;39.55;;
55692;SDS011;41590;53.366;5.212;2022-12-18T08:12:35;75.65;;;33.95;;
55692;SDS011;41590;53.366;5.212;2022-12-18T08:15:02;71.82;;;30.13;;
55692;SDS011;41590;53.366;5.212;2022-12-18T08:17:29;68.13;;;29.73;;
55692;SDS011;41590;53.366;5.212;2022-12-18T08:19:56;73.38;;;31.52;;
55692;SDS011;41590;53.366;5.212;2022-12-18T08:22:22;66.03;;;30.38;;
55692;SDS011;41590;53.366;5.212;2022-12-18T08:24:48;61.42;;;27.77;;
55692;SDS011;41590;53.366;5.212;2022-12-18T08:27:14;71.80;;;29.48;;
55692;SDS011;41590;53.366;5.212;2022-12-18T08:29:39;63.67;;;29.65;;
55692;SDS011;41590;53.366;5.212;2022-12-18T08:32:06;61.88;;;27.27;;
55692;SDS011;41590;53.366;5.212;2022-12-18T08:34:35;66.57;;;30.25;;
55692;SDS011;41590;53.366;5.212;2022-12-18T08:37:07;58.65;;;26.67;;
55692;SDS011;41590;53.366;5.212;2022-12-18T08:39:33;60.17;;;25.27;;
55692;SDS011;41590;53.366;5.212;2022-12-18T08:41:59;60.22;;;25.85;;
55692;SDS011;41590;53.366;5.212;2022-12-18T08:44:46;60.05;;;26.35;;
55692;SDS011;41590;53.366;5.212;2022-12-18T08:47:12;54.67;;;23.13;;
55692;SDS011;41590;53.366;5.212;2022-12-18T08:49:38;53.08;;;24.10;;
55692;SDS011;41590;53.366;5.212;2022-12-18T08:52:06;55.22;;;23.50;;
55692;SDS011;41590;53.366;5.212;2022-12-18T08:54:32;46.42;;;22.92;;
55692;SDS011;41590;53.366;5.212;2022-12-18T08:59:28;45.55;;;20.58;;
55692;SDS011;41590;53.366;5.212;2022-12-18T09:01:54;53.63;;;24.08;;
55692;SDS011;41590;53.366;5.212;2022-12-18T09:04:20;52.80;;;24.90;;
55692;SDS011;41590;53.366;5.212;2022-12-18T09:06:47;50.63;;;23.08;;
55692;SDS011;41590;53.366;5.212;2022-12-18T09:09:13;50.88;;;23.58;;
55692;SDS011;41590;53.366;5.212;2022-12-18T09:11:39;45.47;;;21.73;;
55692;SDS011;41590;53.366;5.212;2022-12-18T09:14:05;45.60;;;21.30;;
55692;SDS011;41590;53.366;5.212;2022-12-18T09:16:32;43.15;;;20.85;;
55692;SDS011;41590;53.366;5.212;2022-12-18T09:19:00;41.30;;;21.05;;
55692;SDS011;41590;53.366;5.212;2022-12-18T09:21:29;42.20;;;20.42;;
55692;SDS011;41590;53.366;5.212;2022-12-18T09:23:56;39.17;;;19.30;;
55692;SDS011;41590;53.366;5.212;2022-12-18T09:26:23;43.63;;;20.63;;
55692;SDS011;41590;53.366;5.212;2022-12-18T09:28:55;42.85;;;21.15;;
55692;SDS011;41590;53.366;5.212;2022-12-18T09:31:21;37.03;;;18.75;;
55692;SDS011;41590;53.366;5.212;2022-12-18T09:33:54;44.28;;;20.92;;
55692;SDS011;41590;53.366;5.212;2022-12-18T09:36:21;41.33;;;21.02;;
55692;SDS011;41590;53.366;5.212;2022-12-18T09:38:51;39.35;;;20.00;;
55692;SDS011;41590;53.366;5.212;2022-12-18T09:46:55;39.20;;;20.67;;
55692;SDS011;41590;53.366;5.212;2022-12-18T09:49:42;40.30;;;20.88;;
55692;SDS011;41590;53.366;5.212;2022-12-18T09:52:17;36.72;;;19.55;;
55692;SDS011;41590;53.366;5.212;2022-12-18T09:55:06;39.40;;;20.38;;
55692;SDS011;41590;53.366;5.212;2022-12-18T09:57:56;38.27;;;20.20;;
55692;SDS011;41590;53.366;5.212;2022-12-18T10:00:29;35.13;;;19.88;;
55692;SDS011;41590;53.366;5.212;2022-12-18T10:03:12;37.83;;;20.35;;
55692;SDS011;41590;53.366;5.212;2022-12-18T10:08:33;38.88;;;20.42;;
55692;SDS011;41590;53.366;5.212;2022-12-18T10:14:23;40.00;;;20.27;;
55692;SDS011;41590;53.366;5.212;2022-12-18T10:17:12;36.53;;;19.10;;
55692;SDS011;41590;53.366;5.212;2022-12-18T10:20:00;33.28;;;17.40;;
55692;SDS011;41590;53.366;5.212;2022-12-18T10:33:46;34.55;;;18.02;;
55692;SDS011;41590;53.366;5.212;2022-12-18T10:36:12;33.00;;;16.63;;
55692;SDS011;41590;53.366;5.212;2022-12-18T10:38:41;32.08;;;17.65;;
55692;SDS011;41590;53.366;5.212;2022-12-18T10:44:29;29.90;;;16.67;;
55692;SDS011;41590;53.366;5.212;2022-12-18T10:47:02;28.40;;;15.77;;
55692;SDS011;41590;53.366;5.212;2022-12-18T10:55:35;26.95;;;14.90;;
55692;SDS011;41590;53.366;5.212;2022-12-18T10:58:25;26.95;;;14.57;;
55692;SDS011;41590;53.366;5.212;2022-12-18T11:01:11;23.25;;;14.30;;
55692;SDS011;41590;53.366;5.212;2022-12-18T11:03:44;27.98;;;15.25;;
55692;SDS011;41590;53.366;5.212;2022-12-18T11:06:17;23.75;;;13.75;;
55692;SDS011;41590;53.366;5.212;2022-12-18T11:12:02;25.33;;;13.90;;
55692;SDS011;41590;53.366;5.212;2022-12-18T11:14:50;24.98;;;13.73;;
55692;SDS011;41590;53.366;5.212;2022-12-18T11:17:19;24.73;;;14.00;;
55692;SDS011;41590;53.366;5.212;2022-12-18T11:19:57;24.20;;;12.43;;
55692;SDS011;41590;53.366;5.212;2022-12-18T11:22:35;21.50;;;11.38;;
55692;SDS011;41590;53.366;5.212;2022-12-18T11:25:18;22.23;;;12.60;;
55692;SDS011;41590;53.366;5.212;2022-12-18T11:27:52;21.13;;;12.02;;
55692;SDS011;41590;53.366;5.212;2022-12-18T11:30:28;22.15;;;12.23;;
55692;SDS011;41590;53.366;5.212;2022-12-18T11:35:51;24.38;;;12.23;;
55692;SDS011;41590;53.366;5.212;2022-12-18T11:38:24;21.58;;;11.90;;
55692;SDS011;41590;53.366;5.212;2022-12-18T11:44:16;22.90;;;12.88;;
55692;SDS011;41590;53.366;5.212;2022-12-18T11:50:43;26.45;;;12.55;;
55692;SDS011;41590;53.366;5.212;2022-12-18T11:53:16;23.20;;;11.30;;
55692;SDS011;41590;53.366;5.212;2022-12-18T12:07:11;19.80;;;10.38;;
55692;SDS011;41590;53.366;5.212;2022-12-18T13:49:16;20.40;;;10.55;;
55692;SDS011;41590;53.366;5.212;2022-12-18T13:52:39;18.65;;;9.15;;
55692;SDS011;41590;53.366;5.212;2022-12-18T14:02:29;16.85;;;9.05;;
55692;SDS011;41590;53.366;5.212;2022-12-18T14:38:38;16.92;;;9.82;;
55692;SDS011;41590;53.366;5.212;2022-12-18T14:41:14;14.45;;;8.63;;
55692;SDS011;41590;53.366;5.212;2022-12-18T14:43:43;16.10;;;9.18;;
55692;SDS011;41590;53.366;5.212;2022-12-18T15:04:45;16.83;;;10.02;;
55692;SDS011;41590;53.366;5.212;2022-12-18T15:16:27;12.57;;;7.25;;
55692;SDS011;41590;53.366;5.212;2022-12-18T15:22:50;12.07;;;7.10;;
55692;SDS011;41590;53.366;5.212;2022-12-18T15:25:24;15.38;;;9.30;;
55692;SDS011;41590;53.366;5.212;2022-12-18T15:28:02;16.48;;;9.43;;
55692;SDS011;41590;53.366;5.212;2022-12-18T15:30:34;14.73;;;9.02;;
55692;SDS011;41590;53.366;5.212;2022-12-18T15:39:35;15.82;;;9.13;;
55692;SDS011;41590;53.366;5.212;2022-12-18T15:45:57;16.17;;;9.27;;
55692;SDS011;41590;53.366;5.212;2022-12-18T15:48:30;13.23;;;7.75;;
55692;SDS011;41590;53.366;5.212;2022-12-18T15:51:04;16.85;;;8.88;;
55692;SDS011;41590;53.366;5.212;2022-12-18T16:02:23;13.65;;;8.05;;
55692;SDS011;41590;53.366;5.212;2022-12-18T16:05:03;13.85;;;7.95;;
55692;SDS011;41590;53.366;5.212;2022-12-18T16:07:37;22.35;;;8.15;;
55692;SDS011;41590;53.366;5.212;2022-12-18T16:10:10;15.77;;;8.13;;
55692;SDS011;41590;53.366;5.212;2022-12-18T16:15:53;18.67;;;9.52;;
55692;SDS011;41590;53.366;5.212;2022-12-18T16:18:20;18.42;;;10.38;;
55692;SDS011;41590;53.366;5.212;2022-12-18T16:20:47;16.85;;;9.60;;
55692;SDS011;41590;53.366;5.212;2022-12-18T16:23:14;15.68;;;8.00;;
55692;SDS011;41590;53.366;5.212;2022-12-18T16:25:48;15.13;;;8.55;;
55692;SDS011;41590;53.366;5.212;2022-12-18T16:31:55;14.45;;;9.05;;
55692;SDS011;41590;53.366;5.212;2022-12-18T16:34:24;15.82;;;8.48;;
55692;SDS011;41590;53.366;5.212;2022-12-18T16:37:03;17.90;;;9.15;;
55692;SDS011;41590;53.366;5.212;2022-12-18T16:39:30;14.45;;;7.38;;
55692;SDS011;41590;53.366;5.212;2022-12-18T16:42:05;14.35;;;8.23;;
55692;SDS011;41590;53.366;5.212;2022-12-18T16:44:42;16.23;;;9.15;;
55692;SDS011;41590;53.366;5.212;2022-12-18T16:47:10;16.15;;;7.25;;
55692;SDS011;41590;53.366;5.212;2022-12-18T16:54:46;15.15;;;8.57;;
55692;SDS011;41590;53.366;5.212;2022-12-18T16:57:23;16.67;;;9.27;;
55692;SDS011;41590;53.366;5.212;2022-12-18T16:59:59;19.73;;;10.85;;
55692;SDS011;41590;53.366;5.212;2022-12-18T17:09:04;20.23;;;10.27;;
55692;SDS011;41590;53.366;5.212;2022-12-18T17:14:33;17.23;;;9.75;;
55692;SDS011;41590;53.366;5.212;2022-12-18T17:17:00;12.85;;;8.38;;
55692;SDS011;41590;53.366;5.212;2022-12-18T17:19:44;16.27;;;8.68;;
55692;SDS011;41590;53.366;5.212;2022-12-18T17:22:10;17.35;;;8.55;;
55692;SDS011;41590;53.366;5.212;2022-12-18T17:24:37;13.90;;;8.57;;
55692;SDS011;41590;53.366;5.212;2022-12-18T17:27:04;13.48;;;8.68;;
55692;SDS011;41590;53.366;5.212;2022-12-18T17:29:46;17.58;;;9.20;;
55692;SDS011;41590;53.366;5.212;2022-12-18T17:32:13;16.38;;;8.90;;
55692;SDS011;41590;53.366;5.212;2022-12-18T17:34:45;15.30;;;9.68;;
55692;SDS011;41590;53.366;5.212;2022-12-18T17:37:14;16.23;;;9.00;;
55692;SDS011;41590;53.366;5.212;2022-12-18T17:39:40;14.80;;;8.95;;
55692;SDS011;41590;53.366;5.212;2022-12-18T17:42:07;15.05;;;8.57;;
55692;SDS011;41590;53.366;5.212;2022-12-18T17:44:35;14.70;;;8.75;;
55692;SDS011;41590;53.366;5.212;2022-12-18T17:52:37;17.80;;;9.43;;
55692;SDS011;41590;53.366;5.212;2022-12-18T17:57:39;21.10;;;10.93;;
55692;SDS011;41590;53.366;5.212;2022-12-18T18:05:22;17.35;;;10.27;;
55692;SDS011;41590;53.366;5.212;2022-12-18T18:07:51;17.90;;;10.38;;
55692;SDS011;41590;53.366;5.212;2022-12-18T18:10:18;22.88;;;10.90;;
55692;SDS011;41590;53.366;5.212;2022-12-18T18:12:53;17.42;;;11.32;;
55692;SDS011;41590;53.366;5.212;2022-12-18T18:18:22;17.77;;;10.32;;
55692;SDS011;41590;53.366;5.212;2022-12-18T18:20:57;16.02;;;9.80;;
55692;SDS011;41590;53.366;5.212;2022-12-18T18:23:25;17.27;;;10.88;;
55692;SDS011;41590;53.366;5.212;2022-12-18T18:28:52;16.95;;;10.38;;
55692;SDS011;41590;53.366;5.212;2022-12-18T18:31:21;19.48;;;11.50;;
55692;SDS011;41590;53.366;5.212;2022-12-18T18:33:59;19.58;;;11.60;;
55692;SDS011;41590;53.366;5.212;2022-12-18T18:36:26;24.00;;;11.98;;
55692;SDS011;41590;53.366;5.212;2022-12-18T18:38:52;18.10;;;10.80;;
55692;SDS011;41590;53.366;5.212;2022-12-18T18:41:18;24.30;;;12.05;;
55692;SDS011;41590;53.366;5.212;2022-12-18T18:46:36;26.20;;;13.25;;
55692;SDS011;41590;53.366;5.212;2022-12-18T18:54:42;28.70;;;14.88;;
55692;SDS011;41590;53.366;5.212;2022-12-18T18:57:10;25.52;;;13.27;;
55692;SDS011;41590;53.366;5.212;2022-12-18T18:59:39;22.15;;;13.60;;
55692;SDS011;41590;53.366;5.212;2022-12-18T19:02:15;24.13;;;13.73;;
55692;SDS011;41590;53.366;5.212;2022-12-18T19:04:42;22.25;;;12.63;;
55692;SDS011;41590;53.366;5.212;2022-12-18T19:07:08;19.85;;;12.68;;
55692;SDS011;41590;53.366;5.212;2022-12-18T19:15:47;24.45;;;13.32;;
55692;SDS011;41590;53.366;5.212;2022-12-18T19:27:32;23.05;;;13.45;;
55692;SDS011;41590;53.366;5.212;2022-12-18T19:30:02;26.48;;;14.23;;
55692;SDS011;41590;53.366;5.212;2022-12-18T19:32:28;26.15;;;14.57;;
55692;SDS011;41590;53.366;5.212;2022-12-18T19:34:57;25.52;;;14.65;;
55692;SDS011;41590;53.366;5.212;2022-12-18T19:37:35;27.00;;;15.10;;
55692;SDS011;41590;53.366;5.212;2022-12-18T19:40:01;25.27;;;14.63;;
55692;SDS011;41590;53.366;5.212;2022-12-18T19:42:43;28.23;;;15.30;;
55692;SDS011;41590;53.366;5.212;2022-12-18T19:48:07;30.00;;;15.63;;
55692;SDS011;41590;53.366;5.212;2022-12-18T19:50:40;28.60;;;15.75;;
55692;SDS011;41590;53.366;5.212;2022-12-18T19:53:09;28.92;;;16.25;;
55692;SDS011;41590;53.366;5.212;2022-12-18T19:58:16;34.85;;;16.88;;
55692;SDS011;41590;53.366;5.212;2022-12-18T20:00:56;28.45;;;16.05;;
55692;SDS011;41590;53.366;5.212;2022-12-18T20:09:29;33.20;;;16.65;;
55692;SDS011;41590;53.366;5.212;2022-12-18T20:14:25;25.77;;;14.13;;
55692;SDS011;41590;53.366;5.212;2022-12-18T20:16:51;30.05;;;18.13;;
55692;SDS011;41590;53.366;5.212;2022-12-18T20:19:25;31.45;;;18.02;;
55692;SDS011;41590;53.366;5.212;2022-12-18T20:21:59;31.00;;;17.65;;
55692;SDS011;41590;53.366;5.212;2022-12-18T20:24:35;34.85;;;18.20;;
55692;SDS011;41590;53.366;5.212;2022-12-18T20:27:09;34.45;;;17.17;;
55692;SDS011;41590;53.366;5.212;2022-12-18T20:32:18;36.33;;;18.15;;
55692;SDS011;41590;53.366;5.212;2022-12-18T20:34:44;34.05;;;18.65;;
55692;SDS011;41590;53.366;5.212;2022-12-18T20:39:59;33.42;;;19.52;;
55692;SDS011;41590;53.366;5.212;2022-12-18T20:54:02;31.95;;;17.63;;
55692;SDS011;41590;53.366;5.212;2022-12-18T20:56:32;37.40;;;19.73;;
55692;SDS011;41590;53.366;5.212;2022-12-18T20:59:16;31.15;;;18.60;;
55692;SDS011;41590;53.366;5.212;2022-12-18T21:04:44;33.90;;;17.80;;
55692;SDS011;41590;53.366;5.212;2022-12-18T21:07:12;35.05;;;19.98;;
55692;SDS011;41590;53.366;5.212;2022-12-18T21:09:57;35.60;;;18.52;;
55692;SDS011;41590;53.366;5.212;2022-12-18T21:15:20;42.53;;;22.30;;
55692;SDS011;41590;53.366;5.212;2022-12-18T21:17:53;44.05;;;22.15;;
55692;SDS011;41590;53.366;5.212;2022-12-18T21:20:20;33.35;;;19.92;;
55692;SDS011;41590;53.366;5.212;2022-12-18T21:22:56;43.22;;;23.75;;
55692;SDS011;41590;53.366;5.212;2022-12-18T21:25:28;36.15;;;19.67;;
55692;SDS011;41590;53.366;5.212;2022-12-18T21:30:29;34.28;;;18.58;;
55692;SDS011;41590;53.366;5.212;2022-12-18T21:32:56;40.92;;;24.35;;
55692;SDS011;41590;53.366;5.212;2022-12-18T21:35:29;40.03;;;20.77;;
55692;SDS011;41590;53.366;5.212;2022-12-18T21:40:23;45.42;;;23.17;;
55692;SDS011;41590;53.366;5.212;2022-12-18T21:42:49;40.10;;;22.80;;
55692;SDS011;41590;53.366;5.212;2022-12-18T21:45:33;44.47;;;25.27;;
55692;SDS011;41590;53.366;5.212;2022-12-18T21:48:01;51.97;;;27.55;;
55692;SDS011;41590;53.366;5.212;2022-12-18T21:50:28;49.20;;;26.00;;
55692;SDS011;41590;53.366;5.212;2022-12-18T21:53:05;45.85;;;24.27;;
55692;SDS011;41590;53.366;5.212;2022-12-18T21:55:32;46.30;;;26.05;;
55692;SDS011;41590;53.366;5.212;2022-12-18T21:57:58;44.80;;;25.60;;
55692;SDS011;41590;53.366;5.212;2022-12-18T22:03:41;47.00;;;28.05;;
55692;SDS011;41590;53.366;5.212;2022-12-18T22:06:17;46.13;;;26.65;;
55692;SDS011;41590;53.366;5.212;2022-12-18T22:08:43;47.38;;;26.42;;
55692;SDS011;41590;53.366;5.212;2022-12-18T22:11:22;54.08;;;28.42;;
55692;SDS011;41590;53.366;5.212;2022-12-18T22:13:51;46.58;;;26.95;;
55692;SDS011;41590;53.366;5.212;2022-12-18T22:16:19;47.53;;;26.40;;
55692;SDS011;41590;53.366;5.212;2022-12-18T22:18:45;53.63;;;28.55;;
55692;SDS011;41590;53.366;5.212;2022-12-18T22:21:30;53.60;;;27.35;;
55692;SDS011;41590;53.366;5.212;2022-12-18T22:24:04;50.08;;;27.83;;
55692;SDS011;41590;53.366;5.212;2022-12-18T22:26:33;51.03;;;28.65;;